createdAt,value
2023-05-19T00:01:45.587Z,60.87
2023-05-19T00:04:17.921Z,61.21
2023-05-19T00:06:52.102Z,61.28
2023-05-19T00:09:28.022Z,61.46
2023-05-19T00:11:58.833Z,63.04
2023-05-19T00:14:27.111Z,62.93
2023-05-19T00:16:56.199Z,63.35
2023-05-19T00:19:25.030Z,63.38
2023-05-19T00:21:55.038Z,62.97
2023-05-19T00:24:24.462Z,62.95
2023-05-19T00:26:52.785Z,62.30
2023-05-19T00:29:26.658Z,63.41
2023-05-19T00:31:54.554Z,62.44
2023-05-19T00:34:27.363Z,63.47
2023-05-19T00:37:00.759Z,62.89
2023-05-19T00:39:33.179Z,61.78
2023-05-19T00:42:03.844Z,61.45
2023-05-19T00:44:34.566Z,60.80
2023-05-19T00:47:04.730Z,60.35
2023-05-19T00:49:46.209Z,60.29
2023-05-19T00:52:14.031Z,59.13
2023-05-19T00:54:50.097Z,59.11
2023-05-19T00:57:20.938Z,60.41
2023-05-19T00:59:49.879Z,60.72
2023-05-19T01:02:21.821Z,60.63
2023-05-19T01:04:53.804Z,60.60
2023-05-19T01:07:26.023Z,60.52
2023-05-19T01:09:55.481Z,60.88
2023-05-19T01:12:26.001Z,61.46
2023-05-19T01:14:54.188Z,61.63
2023-05-19T01:17:25.827Z,61.79
2023-05-19T01:20:06.655Z,61.80
2023-05-19T01:22:57.608Z,62.81
2023-05-19T01:25:42.552Z,62.29
2023-05-19T01:28:53.396Z,62.37
2023-05-19T01:31:24.572Z,61.38
2023-05-19T01:34:04.683Z,61.64
2023-05-19T01:36:33.968Z,61.73
2023-05-19T01:39:03.982Z,63.00
2023-05-19T01:41:32.957Z,62.06
2023-05-19T01:44:04.615Z,62.41
2023-05-19T01:46:34.094Z,61.47
2023-05-19T01:49:05.185Z,63.66
2023-05-19T01:51:39.891Z,63.22
2023-05-19T01:54:09.788Z,63.80
2023-05-19T01:56:43.262Z,63.67
2023-05-19T01:59:24.404Z,64.21
2023-05-19T02:02:01.046Z,64.78
2023-05-19T02:04:40.305Z,64.11
2023-05-19T02:07:15.705Z,64.33
2023-05-19T02:09:53.448Z,64.88
2023-05-19T02:12:25.963Z,65.11
2023-05-19T02:15:06.984Z,64.85
2023-05-19T02:17:47.793Z,65.24
2023-05-19T02:20:19.842Z,64.21
2023-05-19T02:22:49.467Z,64.87
2023-05-19T02:25:25.981Z,64.61
2023-05-19T02:27:54.157Z,63.76
2023-05-19T02:30:25.318Z,64.09
2023-05-19T02:32:58.946Z,64.59
2023-05-19T02:35:27.983Z,63.59
2023-05-19T02:37:55.868Z,65.25
2023-05-19T02:40:26.480Z,64.87
2023-05-19T02:43:00.265Z,64.58
2023-05-19T02:45:29.736Z,65.28
2023-05-19T02:48:03.624Z,64.45
2023-05-19T02:50:35.104Z,64.78
2023-05-19T02:53:05.706Z,65.42
2023-05-19T02:55:33.790Z,64.65
2023-05-19T02:58:01.763Z,64.98
2023-05-19T03:00:32.282Z,64.73
2023-05-19T03:03:04.584Z,65.40
2023-05-19T03:05:32.617Z,65.49
2023-05-19T03:08:00.702Z,65.38
2023-05-19T03:10:34.151Z,66.19
2023-05-19T03:13:09.357Z,65.19
2023-05-19T03:15:37.219Z,65.09
2023-05-19T03:18:08.503Z,64.23
2023-05-19T03:20:36.336Z,64.54
2023-05-19T03:23:04.204Z,64.05
2023-05-19T03:25:40.925Z,63.35
2023-05-19T03:28:08.813Z,63.29
2023-05-19T03:30:38.463Z,63.72
2023-05-19T03:33:10.095Z,63.95
2023-05-19T03:35:38.007Z,64.17
2023-05-19T03:38:05.761Z,63.37
2023-05-19T03:40:38.888Z,62.76
2023-05-19T03:43:17.888Z,62.78
2023-05-19T03:45:45.772Z,62.00
2023-05-19T03:48:19.131Z,63.09
2023-05-19T03:50:49.530Z,62.88
2023-05-19T03:53:17.400Z,63.59
2023-05-19T03:55:50.714Z,63.93
2023-05-19T03:58:18.862Z,63.14
2023-05-19T04:00:47.030Z,62.88
2023-05-19T04:03:19.840Z,63.65
2023-05-19T04:05:48.316Z,63.54
2023-05-19T04:08:18.057Z,64.52
2023-05-19T04:10:45.882Z,65.00
2023-05-19T04:13:14.905Z,65.89
2023-05-19T04:15:43.862Z,65.41
2023-05-19T04:18:11.750Z,65.81
2023-05-19T04:20:46.087Z,66.24
2023-05-19T04:23:13.936Z,65.03
2023-05-19T04:25:48.738Z,65.20
2023-05-19T04:28:16.815Z,65.37
2023-05-19T04:30:50.594Z,64.95
2023-05-19T04:33:21.530Z,65.02
2023-05-19T04:35:52.863Z,65.81
2023-05-19T04:38:25.760Z,66.90
2023-05-19T04:40:53.730Z,67.30
2023-05-19T04:43:22.293Z,68.01
2023-05-19T04:46:01.627Z,66.70
2023-05-19T04:48:31.022Z,67.05
2023-05-19T04:51:01.620Z,65.99
2023-05-19T04:53:33.016Z,65.93
2023-05-19T04:56:02.135Z,66.93
2023-05-19T04:58:31.389Z,65.41
2023-05-19T05:01:01.835Z,65.26
2023-05-19T05:03:31.029Z,64.33
2023-05-19T05:06:00.373Z,63.02
2023-05-19T05:08:32.558Z,62.87
2023-05-19T05:11:02.919Z,63.71
2023-05-19T05:13:34.248Z,64.10
2023-05-19T05:16:05.053Z,64.88
2023-05-19T05:18:34.899Z,65.32
2023-05-19T05:21:06.063Z,64.52
2023-05-19T05:23:40.403Z,65.46
2023-05-19T05:26:23.099Z,64.29
2023-05-19T05:28:52.248Z,65.48
2023-05-19T05:31:26.501Z,66.89
2023-05-19T05:33:57.192Z,66.32
2023-05-19T05:36:29.534Z,66.28
2023-05-19T05:38:57.326Z,65.67
2023-05-19T05:41:28.096Z,64.22
2023-05-19T05:43:57.796Z,64.60
2023-05-19T05:46:28.679Z,63.53
2023-05-19T05:49:01.384Z,62.88
2023-05-19T05:51:32.875Z,64.53
2023-05-19T05:54:03.897Z,63.52
2023-05-19T05:56:33.739Z,63.38
2023-05-19T05:59:07.024Z,64.34
2023-05-19T06:01:35.969Z,63.68
2023-05-19T06:04:06.720Z,62.94
2023-05-19T06:06:41.651Z,64.76
2023-05-19T06:09:09.420Z,64.41
2023-05-19T06:11:37.530Z,64.65
2023-05-19T06:14:05.767Z,63.63
2023-05-19T06:16:34.084Z,63.20
2023-05-19T06:19:04.172Z,62.73
2023-05-19T06:21:46.196Z,64.62
2023-05-19T06:24:16.719Z,66.27
2023-05-19T06:26:50.078Z,65.22
2023-05-19T06:29:18.532Z,66.35
2023-05-19T06:31:49.842Z,65.84
2023-05-19T06:34:18.086Z,65.06
2023-05-19T06:36:45.862Z,65.55
2023-05-19T06:39:18.182Z,64.53
2023-05-19T06:41:46.431Z,64.33
2023-05-19T06:44:15.586Z,64.57
2023-05-19T06:46:44.404Z,64.82
2023-05-19T06:49:12.291Z,64.28
2023-05-19T06:51:43.082Z,63.81
2023-05-19T06:54:16.407Z,63.04
2023-05-19T06:56:46.146Z,64.15
2023-05-19T06:59:16.874Z,64.50
2023-05-19T07:01:45.076Z,64.83
2023-05-19T07:04:13.359Z,63.72
2023-05-19T07:06:41.693Z,63.34
2023-05-19T07:09:10.606Z,63.87
2023-05-19T07:11:39.361Z,62.89
2023-05-19T07:14:09.202Z,62.54
2023-05-19T07:16:37.658Z,63.87
2023-05-19T07:19:06.033Z,63.06
2023-05-19T07:21:46.289Z,62.86
2023-05-19T07:24:15.652Z,63.11
2023-05-19T07:26:46.519Z,62.92
2023-05-19T07:29:19.926Z,64.32
2023-05-19T07:31:48.075Z,64.28
2023-05-19T07:34:15.956Z,64.98
2023-05-19T07:36:43.936Z,64.85
2023-05-19T07:39:13.798Z,63.91
2023-05-19T07:41:41.850Z,64.72
2023-05-19T07:44:10.434Z,65.20
2023-05-19T07:46:40.109Z,64.40
2023-05-19T07:49:08.272Z,64.62
2023-05-19T07:51:38.953Z,65.91
2023-05-19T07:54:09.026Z,65.66
2023-05-19T07:56:36.899Z,64.74
2023-05-19T07:59:08.405Z,64.79
2023-05-19T08:01:38.569Z,64.48
2023-05-19T08:04:10.296Z,63.82
2023-05-19T08:06:44.673Z,63.71
2023-05-19T08:09:13.092Z,63.84
2023-05-19T08:11:42.479Z,64.18
2023-05-19T08:14:10.907Z,65.10
2023-05-19T08:16:38.737Z,63.66
2023-05-19T08:19:10.311Z,64.52
2023-05-19T08:21:42.271Z,64.49
2023-05-19T08:24:11.425Z,63.92
2023-05-19T08:26:39.727Z,63.20
2023-05-19T08:29:08.698Z,62.55
2023-05-19T08:31:36.508Z,61.92
2023-05-19T08:34:04.948Z,61.99
2023-05-19T08:36:36.494Z,61.48
2023-05-19T08:39:09.405Z,61.63
2023-05-19T08:41:39.711Z,62.59
2023-05-19T08:44:15.700Z,62.22
2023-05-19T08:46:44.929Z,62.35
2023-05-19T08:49:15.734Z,61.67
2023-05-19T08:51:49.486Z,61.26
2023-05-19T08:54:18.422Z,61.97
2023-05-19T08:56:47.166Z,61.37
2023-05-19T08:59:15.754Z,61.72
2023-05-19T09:01:47.148Z,61.23
2023-05-19T09:04:20.266Z,61.37
2023-05-19T09:06:50.323Z,61.39
2023-05-19T09:09:25.277Z,61.51
2023-05-19T09:11:57.326Z,61.83
2023-05-19T09:14:25.472Z,61.64
2023-05-19T09:16:59.191Z,61.77
2023-05-19T09:19:43.383Z,61.81
2023-05-19T09:22:17.977Z,61.64
2023-05-19T09:24:47.151Z,61.21
2023-05-19T09:27:16.580Z,62.28
2023-05-19T09:29:44.972Z,62.40
2023-05-19T09:32:15.156Z,62.03
2023-05-19T09:34:43.860Z,62.76
2023-05-19T09:37:14.310Z,62.73
2023-05-19T09:39:48.561Z,63.10
2023-05-19T09:42:18.800Z,63.57
2023-05-19T09:44:51.544Z,63.60
2023-05-19T09:47:20.634Z,62.15
2023-05-19T09:49:49.245Z,62.41
2023-05-19T09:52:18.498Z,63.05
2023-05-19T09:54:46.912Z,62.72
2023-05-19T09:57:15.483Z,62.74
2023-05-19T09:59:45.310Z,62.42
2023-05-19T10:02:18.255Z,63.23
2023-05-19T10:04:47.723Z,63.86
2023-05-19T10:07:19.278Z,64.90
2023-05-19T10:09:50.325Z,63.33
2023-05-19T10:12:24.613Z,62.71
2023-05-19T10:14:54.845Z,62.81
2023-05-19T10:17:26.751Z,63.10
2023-05-19T10:20:00.198Z,62.59
2023-05-19T10:22:31.047Z,61.77
2023-05-19T10:25:00.848Z,62.22
2023-05-19T10:27:30.119Z,61.61
2023-05-19T10:30:05.919Z,61.98
2023-05-19T10:32:35.197Z,61.70
2023-05-19T10:35:34.545Z,60.84
2023-05-19T10:38:11.067Z,60.34
2023-05-19T10:40:55.505Z,61.08
2023-05-19T10:43:27.358Z,61.87
2023-05-19T10:45:56.397Z,61.43
2023-05-19T10:48:26.740Z,61.27
2023-05-19T10:51:00.213Z,60.61
2023-05-19T10:53:32.837Z,61.81
2023-05-19T10:56:04.523Z,61.04
2023-05-19T10:58:50.240Z,60.57
2023-05-19T11:01:18.949Z,61.06
2023-05-19T11:03:48.468Z,60.80
2023-05-19T11:06:24.596Z,60.77
2023-05-19T11:08:58.258Z,61.36
2023-05-19T11:11:51.733Z,60.54
2023-05-19T11:14:23.127Z,60.48
2023-05-19T11:17:05.567Z,60.62
2023-05-19T11:19:35.522Z,60.97
2023-05-19T11:22:11.932Z,60.95
2023-05-19T11:24:44.595Z,61.18
2023-05-19T11:27:24.881Z,60.42
2023-05-19T11:29:53.586Z,61.09
2023-05-19T11:32:27.213Z,61.00
2023-05-19T11:34:56.535Z,60.72
2023-05-19T11:37:24.814Z,60.70
2023-05-19T11:40:14.227Z,60.30
2023-05-19T11:42:44.875Z,61.11
2023-05-19T11:45:13.053Z,61.32
2023-05-19T11:47:59.631Z,61.06
2023-05-19T11:50:29.045Z,61.17
2023-05-19T11:53:03.063Z,61.02
2023-05-19T11:55:31.472Z,61.61
2023-05-19T11:58:04.528Z,61.09
2023-05-19T12:00:40.832Z,60.75
2023-05-19T12:03:09.563Z,59.46
2023-05-19T12:05:42.755Z,58.94
2023-05-19T12:08:16.908Z,59.67
2023-05-19T12:10:46.139Z,60.68
2023-05-19T12:13:16.594Z,60.50
2023-05-19T12:15:49.834Z,60.46
2023-05-19T12:18:17.822Z,60.46
2023-05-19T12:20:47.591Z,60.92
2023-05-19T12:23:16.600Z,60.12
2023-05-19T12:25:50.623Z,60.15
2023-05-19T12:28:23.067Z,60.38
2023-05-19T12:30:55.026Z,60.39
2023-05-19T12:33:24.354Z,60.93
2023-05-19T12:35:52.732Z,61.01
2023-05-19T12:38:23.820Z,60.34
2023-05-19T12:40:52.169Z,59.75
2023-05-19T12:43:25.200Z,59.90
2023-05-19T12:45:56.745Z,59.55
2023-05-19T12:48:26.491Z,59.81
2023-05-19T12:50:57.150Z,59.52
2023-05-19T12:53:29.229Z,59.96
2023-05-19T12:55:57.177Z,60.09
2023-05-19T12:58:35.469Z,59.47
2023-05-19T13:01:05.680Z,59.99
2023-05-19T13:03:33.694Z,60.28
2023-05-19T13:06:07.961Z,61.39
2023-05-19T13:08:36.357Z,61.50
2023-05-19T13:11:06.716Z,61.56
2023-05-19T13:13:35.976Z,61.97
2023-05-19T13:16:03.855Z,61.65
2023-05-19T13:18:34.716Z,61.83
2023-05-19T13:21:04.085Z,61.68
2023-05-19T13:23:33.030Z,62.20
2023-05-19T13:26:05.236Z,62.71
2023-05-19T13:28:37.177Z,62.47
2023-05-19T13:31:05.170Z,62.25
2023-05-19T13:33:33.724Z,63.16
2023-05-19T13:36:02.132Z,63.37
2023-05-19T13:38:30.411Z,62.80
2023-05-19T13:41:09.386Z,63.16
2023-05-19T13:43:39.795Z,62.14
2023-05-19T13:46:11.331Z,62.09
2023-05-19T13:48:41.360Z,61.97
2023-05-19T13:51:10.307Z,61.84
2023-05-19T13:53:39.994Z,60.83
2023-05-19T13:56:07.945Z,61.21
2023-05-19T13:58:41.000Z,61.13
2023-05-19T14:01:09.425Z,62.90
2023-05-19T14:03:37.319Z,63.40
2023-05-19T14:06:09.264Z,63.13
2023-05-19T14:08:37.428Z,62.79
2023-05-19T14:11:07.928Z,63.46
2023-05-19T14:13:41.895Z,62.65
2023-05-19T14:16:13.122Z,62.70
2023-05-19T14:18:42.262Z,62.67
2023-05-19T14:21:14.307Z,62.37
2023-05-19T14:23:44.682Z,62.68
2023-05-19T14:26:15.612Z,63.35
2023-05-19T14:28:47.124Z,63.09
2023-05-19T14:31:16.473Z,63.16
2023-05-19T14:33:46.598Z,63.12
2023-05-19T14:36:17.205Z,63.06
2023-05-19T14:38:45.160Z,63.45
2023-05-19T14:41:16.146Z,63.35
2023-05-19T14:43:49.978Z,63.93
2023-05-19T14:46:19.241Z,63.34
2023-05-19T14:48:53.621Z,63.22
2023-05-19T14:51:21.604Z,62.67
2023-05-19T14:53:50.292Z,62.69
2023-05-19T14:56:23.382Z,62.85
2023-05-19T14:58:55.481Z,62.97
2023-05-19T15:01:27.288Z,62.27
2023-05-19T15:03:55.623Z,62.62
2023-05-19T15:06:25.636Z,63.18
2023-05-19T15:08:53.519Z,63.04
2023-05-19T15:11:24.538Z,63.09
2023-05-19T15:13:52.491Z,63.36
2023-05-19T15:16:23.033Z,63.29
2023-05-19T15:18:52.521Z,62.78
2023-05-19T15:21:20.446Z,63.03
2023-05-19T15:23:48.304Z,63.58
2023-05-19T15:26:16.191Z,62.41
2023-05-19T15:28:46.808Z,62.48
2023-05-19T15:31:15.903Z,63.42
2023-05-19T15:33:46.686Z,62.27
2023-05-19T15:36:17.521Z,61.15
2023-05-19T15:38:45.458Z,61.71
2023-05-19T15:41:13.370Z,62.78
2023-05-19T15:43:42.004Z,63.05
2023-05-19T15:46:11.879Z,61.82
2023-05-19T15:48:42.092Z,62.45
2023-05-19T15:51:11.406Z,61.09
2023-05-19T15:53:41.389Z,62.11
2023-05-19T15:56:13.059Z,61.65
2023-05-19T15:58:41.389Z,61.51
2023-05-19T16:01:09.620Z,60.96
2023-05-19T16:03:37.842Z,61.74
2023-05-19T16:06:07.298Z,60.22
2023-05-19T16:08:35.207Z,60.37
2023-05-19T16:11:15.781Z,60.98
2023-05-19T16:13:44.804Z,60.33
2023-05-19T16:16:12.951Z,59.60
2023-05-19T16:18:53.788Z,59.51
2023-05-19T16:21:22.117Z,59.83
2023-05-19T16:23:50.048Z,60.38
2023-05-19T16:26:19.572Z,59.88
2023-05-19T16:28:53.233Z,59.91
2023-05-19T16:31:25.277Z,59.38
2023-05-19T16:33:55.922Z,58.97
2023-05-19T16:36:23.777Z,59.08
2023-05-19T16:38:54.453Z,59.68
2023-05-19T16:41:27.658Z,59.43
2023-05-19T16:43:58.347Z,59.66
2023-05-19T16:46:26.950Z,59.83
2023-05-19T16:49:17.477Z,60.11
2023-05-19T16:51:47.582Z,60.58
2023-05-19T16:54:20.917Z,60.28
2023-05-19T16:56:51.411Z,60.36
2023-05-19T16:59:19.874Z,61.80
2023-05-19T17:01:53.326Z,60.97
2023-05-19T17:04:28.716Z,60.82
2023-05-19T17:06:58.469Z,59.89
2023-05-19T17:09:29.563Z,60.33
2023-05-19T17:12:01.622Z,59.37
2023-05-19T17:14:29.385Z,59.08
2023-05-19T17:17:04.824Z,59.40
2023-05-19T17:19:32.881Z,58.80
2023-05-19T17:22:00.760Z,59.67
2023-05-19T17:24:35.501Z,59.63
2023-05-19T17:27:07.991Z,59.88
2023-05-19T17:29:38.543Z,59.31
2023-05-19T17:32:06.857Z,59.02
2023-05-19T17:34:34.717Z,59.48
2023-05-19T17:37:09.961Z,58.89
2023-05-19T17:39:37.769Z,58.17
2023-05-19T17:42:10.287Z,57.19
2023-05-19T17:44:38.155Z,58.30
2023-05-19T17:47:08.060Z,58.81
2023-05-19T17:49:35.973Z,59.15
2023-05-19T17:52:04.332Z,58.04
2023-05-19T17:54:33.014Z,59.09
2023-05-19T17:57:08.500Z,59.29
2023-05-19T17:59:40.572Z,58.34
2023-05-19T18:02:09.853Z,57.32
2023-05-19T18:04:38.728Z,57.95
2023-05-19T18:07:08.670Z,57.76
2023-05-19T18:09:41.503Z,57.51
2023-05-19T18:12:11.879Z,57.20
2023-05-19T18:14:41.367Z,58.75
2023-05-19T18:17:10.880Z,60.24
2023-05-19T18:19:41.377Z,58.72
2023-05-19T18:22:12.934Z,58.48
2023-05-19T18:24:43.499Z,58.52
2023-05-19T18:27:11.315Z,58.59
2023-05-19T18:29:42.366Z,58.92
2023-05-19T18:32:16.889Z,59.62
2023-05-19T18:34:45.289Z,60.23
2023-05-19T18:37:13.117Z,59.79
2023-05-19T18:39:43.464Z,59.67
2023-05-19T18:42:14.029Z,59.82
2023-05-19T18:44:42.266Z,59.77
2023-05-19T18:47:13.989Z,59.96
2023-05-19T18:49:43.373Z,59.88
2023-05-19T18:52:13.779Z,60.24
2023-05-19T18:54:45.945Z,61.46
2023-05-19T18:57:16.516Z,60.68
2023-05-19T18:59:53.374Z,60.93
2023-05-19T19:02:21.156Z,61.41
2023-05-19T19:04:53.229Z,61.90
2023-05-19T19:07:21.132Z,62.09
2023-05-19T19:09:49.167Z,62.13
2023-05-19T19:12:24.178Z,63.46
2023-05-19T19:14:55.071Z,63.41
2023-05-19T19:17:24.964Z,62.41
2023-05-19T19:20:00.495Z,62.55
2023-05-19T19:22:30.926Z,62.29
2023-05-19T19:25:08.438Z,63.43
2023-05-19T19:27:40.643Z,63.73
2023-05-19T19:30:12.106Z,63.79
2023-05-19T19:32:41.107Z,64.39
2023-05-19T19:35:13.718Z,65.05
2023-05-19T19:37:42.011Z,65.14
2023-05-19T19:40:10.782Z,66.17
2023-05-19T19:42:59.105Z,66.32
2023-05-19T19:45:34.719Z,65.41
2023-05-19T19:48:02.662Z,65.02
2023-05-19T19:50:34.030Z,65.35
2023-05-19T19:53:09.859Z,65.88
2023-05-19T19:55:40.008Z,65.20
2023-05-19T19:58:10.232Z,67.60
2023-05-19T20:00:40.731Z,66.11
2023-05-19T20:03:08.647Z,65.19
2023-05-19T20:05:39.539Z,64.64
2023-05-19T20:08:14.049Z,64.34
2023-05-19T20:10:43.320Z,65.56
2023-05-19T20:13:11.187Z,64.40
2023-05-19T20:15:39.053Z,64.07
2023-05-19T20:18:06.935Z,64.11
2023-05-19T20:20:35.039Z,63.80
2023-05-19T20:23:04.955Z,63.49
2023-05-19T20:25:36.100Z,63.64
2023-05-19T20:28:04.964Z,64.13
2023-05-19T20:30:34.792Z,64.29
2023-05-19T20:33:06.893Z,65.47
2023-05-19T20:35:40.507Z,64.39
2023-05-19T20:38:12.717Z,64.47
2023-05-19T20:40:40.941Z,65.43
2023-05-19T20:43:08.783Z,63.97
2023-05-19T20:45:39.716Z,65.47
2023-05-19T20:48:07.619Z,66.33
2023-05-19T20:50:35.498Z,66.78
2023-05-19T20:53:03.371Z,66.46
2023-05-19T20:55:36.141Z,66.54
2023-05-19T20:58:04.224Z,65.76
2023-05-19T21:00:32.645Z,66.39
2023-05-19T21:03:00.883Z,67.35
2023-05-19T21:05:29.197Z,67.30
2023-05-19T21:07:57.117Z,66.38
2023-05-19T21:10:25.993Z,67.12
2023-05-19T21:12:56.347Z,66.64
2023-05-19T21:15:24.593Z,67.63
2023-05-19T21:17:55.329Z,67.53
2023-05-19T21:20:23.308Z,65.86
2023-05-19T21:22:53.929Z,65.48
2023-05-19T21:25:22.358Z,66.78
2023-05-19T21:27:58.810Z,65.63
2023-05-19T21:30:31.062Z,67.39
2023-05-19T21:32:59.345Z,66.04
2023-05-19T21:35:27.252Z,66.20
2023-05-19T21:37:57.390Z,65.67
2023-05-19T21:40:25.286Z,65.81
2023-05-19T21:42:53.378Z,65.62
2023-05-19T21:45:21.232Z,65.99
2023-05-19T21:47:56.690Z,65.80
2023-05-19T21:50:27.052Z,66.28
2023-05-19T21:52:54.856Z,64.58
2023-05-19T21:55:24.526Z,64.41
2023-05-19T21:57:52.341Z,64.63
2023-05-19T22:00:20.191Z,63.40
2023-05-19T22:02:48.073Z,63.66
2023-05-19T22:05:17.782Z,63.82
2023-05-19T22:07:46.812Z,64.19
2023-05-19T22:10:15.055Z,66.95
2023-05-19T22:12:43.157Z,66.31
2023-05-19T22:15:13.421Z,65.05
2023-05-19T22:17:47.548Z,64.78
2023-05-19T22:20:17.363Z,64.99
2023-05-19T22:22:47.200Z,65.66
2023-05-19T22:25:17.448Z,65.47
2023-05-19T22:27:47.751Z,66.66
2023-05-19T22:30:17.969Z,65.70
2023-05-19T22:32:45.744Z,64.85
2023-05-19T22:35:13.610Z,67.19
2023-05-19T22:37:43.119Z,65.83
2023-05-19T22:40:13.910Z,67.05
2023-05-19T22:42:46.938Z,66.83
2023-05-19T22:45:15.837Z,65.60
2023-05-19T22:47:47.947Z,65.97
2023-05-19T22:50:21.744Z,65.27
2023-05-19T22:52:53.837Z,65.99
2023-05-19T22:55:22.821Z,65.44
2023-05-19T22:57:51.067Z,64.65
2023-05-19T23:00:20.825Z,65.34
2023-05-19T23:02:48.678Z,65.37
2023-05-19T23:05:20.018Z,65.15
2023-05-19T23:07:49.138Z,65.04
2023-05-19T23:10:22.148Z,63.88
2023-05-19T23:12:51.902Z,64.14
2023-05-19T23:15:21.067Z,64.08
2023-05-19T23:17:50.666Z,64.67
2023-05-19T23:20:24.019Z,65.21
2023-05-19T23:22:51.848Z,64.79
2023-05-19T23:25:21.049Z,64.94
2023-05-19T23:27:50.942Z,65.72
2023-05-19T23:30:21.583Z,66.29
2023-05-19T23:33:03.827Z,66.28
2023-05-19T23:35:41.900Z,66.67
2023-05-19T23:38:10.895Z,67.03
2023-05-19T23:40:43.925Z,67.60
2023-05-19T23:43:14.557Z,67.97
2023-05-19T23:45:42.997Z,68.87
2023-05-19T23:48:11.188Z,68.44
2023-05-19T23:50:42.983Z,68.61
2023-05-19T23:53:10.716Z,68.61
2023-05-19T23:55:40.857Z,68.33
2023-05-19T23:58:11.804Z,68.35
